Burlington, New Jersey
Current Conditions -  °F | °C
As of 8:54 AM on Wednesday 28 Jan 2015 (Local Time) from KPNE Reporting Station
Clear Clear  
Wind Chill:   Ceiling: Unl
Heat Index: 22°   Visibility: 10mi
Dew Point: -1°   Wind: 15mph
Humidity: 37%   Direction: 320°NW
Pressure: 30.11"   Gusts: 25mph
Location:  40.08°N, 74.86°W
Report Text: KPNE 281354Z AUTO 32013G22KT 10SM CLR M06/M18 A3011 RMK AO2 PK WND 32027/1336 SLP198 T10561183 TSNO
Loading
Personal Weather Stations






























Interactive Weather Map New forecast layout! Learn more

10-Day Weather Forecast

Advertisements
Track Severe Weather on mobile